Hangaard, Minnesota
Current Conditions -  °F | °C
As of 12:15 PM on Thursday 27 Nov 2014 (Local Time) from KFSE Reporting Station
Clear Clear  
Wind Chill: -10°   Ceiling: Unl
Heat Index:   Visibility: 10mi
Dew Point: -9°   Wind: 5mph
Humidity: 66%   Direction: 170°S
Pressure: 30.4"   Gusts: NA
Location:  47.8469°N, 95.4815°W
Report Text: KFSE 271815Z AUTO 17004KT 10SM CLR M18/M23 A3040 RMK AO2
Loading
Personal Weather Stations






























Interactive Weather Map New forecast layout! Learn more

10-Day Weather Forecast

Advertisements
Track Severe Weather on mobile